sensor_id;sensor_type;location;lat;lon;timestamp;pressure;altitude;pressure_sealevel;temperature;humidity
9905;BME280;4991;43.566;27.820;2023-08-20T00:01:14;98932.69;;;21.27;100.00
9905;BME280;4991;43.566;27.820;2023-08-20T00:03:44;98943.38;;;21.28;100.00
9905;BME280;4991;43.566;27.820;2023-08-20T00:06:11;98947.59;;;21.19;100.00
9905;BME280;4991;43.566;27.820;2023-08-20T00:08:37;98945.59;;;21.19;100.00
9905;BME280;4991;43.566;27.820;2023-08-20T00:11:02;98942.41;;;21.17;100.00
9905;BME280;4991;43.566;27.820;2023-08-20T00:13:31;98945.88;;;21.11;100.00
9905;BME280;4991;43.566;27.820;2023-08-20T00:15:57;98944.56;;;21.05;100.00
9905;BME280;4991;43.566;27.820;2023-08-20T00:18:22;98953.00;;;21.12;100.00
9905;BME280;4991;43.566;27.820;2023-08-20T00:20:48;98942.81;;;20.97;100.00
9905;BME280;4991;43.566;27.820;2023-08-20T00:23:14;98951.66;;;21.02;100.00
9905;BME280;4991;43.566;27.820;2023-08-20T00:25:40;98946.03;;;20.99;100.00
9905;BME280;4991;43.566;27.820;2023-08-20T00:28:06;98941.44;;;20.87;100.00
9905;BME280;4991;43.566;27.820;2023-08-20T00:30:32;98937.50;;;20.88;100.00
9905;BME280;4991;43.566;27.820;2023-08-20T00:32:57;98944.91;;;20.81;100.00
9905;BME280;4991;43.566;27.820;2023-08-20T00:35:23;98938.53;;;20.80;100.00
9905;BME280;4991;43.566;27.820;2023-08-20T00:37:48;98932.19;;;20.80;100.00
9905;BME280;4991;43.566;27.820;2023-08-20T00:40:14;98944.38;;;20.75;100.00
9905;BME280;4991;43.566;27.820;2023-08-20T00:42:41;98937.81;;;20.83;100.00
9905;BME280;4991;43.566;27.820;2023-08-20T00:45:07;98941.00;;;20.85;100.00
9905;BME280;4991;43.566;27.820;2023-08-20T00:47:34;98927.03;;;20.78;100.00
9905;BME280;4991;43.566;27.820;2023-08-20T00:50:00;98937.88;;;20.87;100.00
9905;BME280;4991;43.566;27.820;2023-08-20T00:52:26;98947.34;;;20.86;100.00
9905;BME280;4991;43.566;27.820;2023-08-20T00:54:53;98933.88;;;20.84;100.00
9905;BME280;4991;43.566;27.820;2023-08-20T00:57:19;98942.22;;;20.88;100.00
9905;BME280;4991;43.566;27.820;2023-08-20T00:59:47;98933.22;;;20.91;100.00
9905;BME280;4991;43.566;27.820;2023-08-20T01:02:16;98933.22;;;20.91;100.00
9905;BME280;4991;43.566;27.820;2023-08-20T01:04:42;98926.50;;;20.92;100.00
9905;BME280;4991;43.566;27.820;2023-08-20T01:12:17;98926.44;;;20.88;100.00
9905;BME280;4991;43.566;27.820;2023-08-20T01:14:44;98941.81;;;20.86;100.00
9905;BME280;4991;43.566;27.820;2023-08-20T01:17:10;98935.41;;;20.82;100.00
9905;BME280;4991;43.566;27.820;2023-08-20T01:19:36;98938.25;;;20.85;100.00
9905;BME280;4991;43.566;27.820;2023-08-20T01:22:39;98932.19;;;20.80;100.00
9905;BME280;4991;43.566;27.820;2023-08-20T01:25:23;98931.13;;;20.84;100.00
9905;BME280;4991;43.566;27.820;2023-08-20T01:28:23;98930.69;;;20.82;100.00
9905;BME280;4991;43.566;27.820;2023-08-20T01:30:50;98938.53;;;20.80;100.00
9905;BME280;4991;43.566;27.820;2023-08-20T01:33:16;98931.81;;;20.81;100.00
9905;BME280;4991;43.566;27.820;2023-08-20T01:35:41;98935.34;;;20.78;100.00
9905;BME280;4991;43.566;27.820;2023-08-20T01:38:07;98929.38;;;20.76;100.00
9905;BME280;4991;43.566;27.820;2023-08-20T01:40:33;98931.81;;;20.81;100.00
9905;BME280;4991;43.566;27.820;2023-08-20T01:42:59;98926.28;;;20.81;100.00
9905;BME280;4991;43.566;27.820;2023-08-20T01:45:24;98933.44;;;20.82;100.00
9905;BME280;4991;43.566;27.820;2023-08-20T01:47:51;98921.13;;;20.80;100.00
9905;BME280;4991;43.566;27.820;2023-08-20T01:50:17;98928.38;;;20.88;100.00
9905;BME280;4991;43.566;27.820;2023-08-20T01:52:42;98929.44;;;20.80;100.00
9905;BME280;4991;43.566;27.820;2023-08-20T01:55:08;98924.25;;;20.78;100.00
9905;BME280;4991;43.566;27.820;2023-08-20T01:57:33;98926.28;;;20.81;100.00
9905;BME280;4991;43.566;27.820;2023-08-20T01:59:59;98916.69;;;20.75;100.00
9905;BME280;4991;43.566;27.820;2023-08-20T02:02:25;98916.69;;;20.75;100.00
9905;BME280;4991;43.566;27.820;2023-08-20T02:04:51;98908.47;;;20.79;100.00
9905;BME280;4991;43.566;27.820;2023-08-20T02:07:16;98914.00;;;20.79;100.00
9905;BME280;4991;43.566;27.820;2023-08-20T02:09:42;98907.28;;;20.80;100.00
9905;BME280;4991;43.566;27.820;2023-08-20T02:12:08;98914.38;;;20.77;100.00
9905;BME280;4991;43.566;27.820;2023-08-20T02:14:34;98911.59;;;20.77;100.00
9905;BME280;4991;43.566;27.820;2023-08-20T02:17:03;98919.78;;;20.70;100.00
9905;BME280;4991;43.566;27.820;2023-08-20T02:19:29;98927.25;;;20.70;100.00
9905;BME280;4991;43.566;27.820;2023-08-20T02:21:55;98916.56;;;20.68;100.00
9905;BME280;4991;43.566;27.820;2023-08-20T02:24:21;98929.97;;;20.66;100.00
9905;BME280;4991;43.566;27.820;2023-08-20T02:26:46;98927.94;;;20.63;100.00
9905;BME280;4991;43.566;27.820;2023-08-20T02:29:12;98921.03;;;20.53;100.00
9905;BME280;4991;43.566;27.820;2023-08-20T02:31:38;98928.22;;;20.58;100.00
9905;BME280;4991;43.566;27.820;2023-08-20T02:34:03;98928.22;;;20.58;100.00
9905;BME280;4991;43.566;27.820;2023-08-20T02:36:29;98935.09;;;20.64;100.00
9905;BME280;4991;43.566;27.820;2023-08-20T02:38:55;98936.97;;;20.60;100.00
9905;BME280;4991;43.566;27.820;2023-08-20T02:41:21;98932.91;;;20.54;100.00
9905;BME280;4991;43.566;27.820;2023-08-20T02:43:47;98944.44;;;20.56;100.00
9905;BME280;4991;43.566;27.820;2023-08-20T02:46:13;98940.78;;;20.52;100.00
9905;BME280;4991;43.566;27.820;2023-08-20T02:48:39;98936.06;;;20.52;100.00
9905;BME280;4991;43.566;27.820;2023-08-20T02:51:04;98947.13;;;20.52;100.00
9905;BME280;4991;43.566;27.820;2023-08-20T02:53:30;98946.69;;;20.50;100.00
9905;BME280;4991;43.566;27.820;2023-08-20T02:55:56;98943.84;;;20.47;100.00
9905;BME280;4991;43.566;27.820;2023-08-20T02:58:24;98936.63;;;20.42;100.00
9905;BME280;4991;43.566;27.820;2023-08-20T03:00:50;98947.78;;;20.46;100.00
9905;BME280;4991;43.566;27.820;2023-08-20T03:03:16;98947.19;;;20.37;100.00
9905;BME280;4991;43.566;27.820;2023-08-20T03:05:42;98946.31;;;20.33;100.00
9905;BME280;4991;43.566;27.820;2023-08-20T03:08:08;98953.00;;;20.32;100.00
9905;BME280;4991;43.566;27.820;2023-08-20T03:10:34;98955.41;;;20.33;100.00
9905;BME280;4991;43.566;27.820;2023-08-20T03:13:01;98942.69;;;20.29;100.00
9905;BME280;4991;43.566;27.820;2023-08-20T03:15:28;98954.47;;;20.45;100.00
9905;BME280;4991;43.566;27.820;2023-08-20T03:17:53;98945.72;;;20.43;100.00
9905;BME280;4991;43.566;27.820;2023-08-20T03:20:19;98953.03;;;20.51;100.00
9905;BME280;4991;43.566;27.820;2023-08-20T03:22:44;98950.84;;;20.41;100.00
9905;BME280;4991;43.566;27.820;2023-08-20T03:25:10;98954.53;;;20.48;100.00
9905;BME280;4991;43.566;27.820;2023-08-20T03:27:36;98948.47;;;20.43;100.00
9905;BME280;4991;43.566;27.820;2023-08-20T03:30:02;98949.06;;;20.52;100.00
9905;BME280;4991;43.566;27.820;2023-08-20T03:32:28;98949.81;;;20.49;100.00
9905;BME280;4991;43.566;27.820;2023-08-20T03:34:54;98952.13;;;20.47;100.00
9905;BME280;4991;43.566;27.820;2023-08-20T03:37:22;98951.03;;;20.51;100.00
9905;BME280;4991;43.566;27.820;2023-08-20T03:39:48;98955.84;;;20.54;100.00
9905;BME280;4991;43.566;27.820;2023-08-20T03:42:13;98957.44;;;20.56;100.00
9905;BME280;4991;43.566;27.820;2023-08-20T03:44:39;98950.53;;;20.46;100.00
9905;BME280;4991;43.566;27.820;2023-08-20T03:47:05;98954.16;;;20.50;100.00
9905;BME280;4991;43.566;27.820;2023-08-20T03:49:30;98955.28;;;20.45;100.00
9905;BME280;4991;43.566;27.820;2023-08-20T03:51:56;98952.56;;;20.49;100.00
9905;BME280;4991;43.566;27.820;2023-08-20T03:54:22;98958.47;;;20.47;100.00
9905;BME280;4991;43.566;27.820;2023-08-20T03:56:47;98955.19;;;20.42;100.00
9905;BME280;4991;43.566;27.820;2023-08-20T03:59:13;98952.34;;;20.38;100.00
9905;BME280;4991;43.566;27.820;2023-08-20T04:01:39;98951.75;;;20.48;100.00
9905;BME280;4991;43.566;27.820;2023-08-20T04:04:05;98954.81;;;20.43;100.00
9905;BME280;4991;43.566;27.820;2023-08-20T04:06:30;98958.13;;;20.49;100.00
9905;BME280;4991;43.566;27.820;2023-08-20T04:08:56;98953.72;;;20.48;100.00
9905;BME280;4991;43.566;27.820;2023-08-20T04:11:22;98952.06;;;20.43;100.00
9905;BME280;4991;43.566;27.820;2023-08-20T04:13:47;98956.41;;;20.44;100.00
9905;BME280;4991;43.566;27.820;2023-08-20T04:16:13;98958.88;;;20.49;100.00
9905;BME280;4991;43.566;27.820;2023-08-20T04:18:39;98961.94;;;20.44;100.00
9905;BME280;4991;43.566;27.820;2023-08-20T04:21:05;98963.72;;;20.52;100.00
9905;BME280;4991;43.566;27.820;2023-08-20T04:23:32;98957.81;;;20.35;100.00
9905;BME280;4991;43.566;27.820;2023-08-20T04:25:57;98962.13;;;20.32;100.00
9905;BME280;4991;43.566;27.820;2023-08-20T04:28:24;98955.50;;;20.37;100.00
9905;BME280;4991;43.566;27.820;2023-08-20T04:30:52;98961.53;;;20.42;100.00
9905;BME280;4991;43.566;27.820;2023-08-20T04:33:20;98961.63;;;20.46;100.00
9905;BME280;4991;43.566;27.820;2023-08-20T04:35:46;98967.63;;;20.51;100.00
9905;BME280;4991;43.566;27.820;2023-08-20T04:38:12;98964.66;;;20.60;100.00
9905;BME280;4991;43.566;27.820;2023-08-20T04:40:37;98965.59;;;20.68;100.00
9905;BME280;4991;43.566;27.820;2023-08-20T04:43:03;98966.09;;;20.73;100.00
9905;BME280;4991;43.566;27.820;2023-08-20T04:45:28;98968.19;;;20.80;100.00
9905;BME280;4991;43.566;27.820;2023-08-20T04:47:54;98969.19;;;20.91;100.00
9905;BME280;4991;43.566;27.820;2023-08-20T04:50:20;98962.19;;;20.97;100.00
9905;BME280;4991;43.566;27.820;2023-08-20T04:52:45;98963.09;;;21.01;100.00
9905;BME280;4991;43.566;27.820;2023-08-20T04:55:11;98957.59;;;21.04;100.00
9905;BME280;4991;43.566;27.820;2023-08-20T04:57:37;98954.19;;;21.11;100.00
9905;BME280;4991;43.566;27.820;2023-08-20T05:00:02;98955.38;;;21.13;100.00
9905;BME280;4991;43.566;27.820;2023-08-20T05:02:28;98952.00;;;21.23;100.00
9905;BME280;4991;43.566;27.820;2023-08-20T05:04:54;98953.66;;;21.28;100.00
9905;BME280;4991;43.566;27.820;2023-08-20T05:07:20;98957.00;;;21.37;100.00
9905;BME280;4991;43.566;27.820;2023-08-20T05:09:46;98957.88;;;21.44;100.00
9905;BME280;4991;43.566;27.820;2023-08-20T05:12:11;98949.69;;;21.51;100.00
9905;BME280;4991;43.566;27.820;2023-08-20T05:14:37;98954.66;;;21.65;100.00
9905;BME280;4991;43.566;27.820;2023-08-20T05:17:02;98952.84;;;21.76;100.00
9905;BME280;4991;43.566;27.820;2023-08-20T05:19:28;98947.06;;;21.85;100.00
9905;BME280;4991;43.566;27.820;2023-08-20T05:21:54;98948.25;;;21.84;100.00
9905;BME280;4991;43.566;27.820;2023-08-20T05:24:24;98948.38;;;21.94;100.00
9905;BME280;4991;43.566;27.820;2023-08-20T05:27:06;98955.25;;;22.04;100.00
9905;BME280;4991;43.566;27.820;2023-08-20T05:29:32;98948.66;;;22.12;100.00
9905;BME280;4991;43.566;27.820;2023-08-20T05:31:58;98946.41;;;22.24;100.00
9905;BME280;4991;43.566;27.820;2023-08-20T05:34:23;98950.97;;;22.39;100.00
9905;BME280;4991;43.566;27.820;2023-08-20T05:36:49;98950.69;;;22.48;100.00
9905;BME280;4991;43.566;27.820;2023-08-20T05:39:14;98959.19;;;22.62;100.00
9905;BME280;4991;43.566;27.820;2023-08-20T05:41:40;98944.16;;;22.63;100.00
9905;BME280;4991;43.566;27.820;2023-08-20T05:44:06;98943.91;;;22.78;100.00
9905;BME280;4991;43.566;27.820;2023-08-20T05:46:31;98946.00;;;22.88;100.00
9905;BME280;4991;43.566;27.820;2023-08-20T05:48:57;98945.69;;;22.97;100.00
9905;BME280;4991;43.566;27.820;2023-08-20T05:51:23;98947.78;;;23.07;100.00
9905;BME280;4991;43.566;27.820;2023-08-20T05:53:48;98933.91;;;23.11;100.00
9905;BME280;4991;43.566;27.820;2023-08-20T05:56:14;98944.06;;;23.29;100.00
9905;BME280;4991;43.566;27.820;2023-08-20T05:58:39;98941.78;;;23.45;100.00
9905;BME280;4991;43.566;27.820;2023-08-20T06:01:05;98927.94;;;23.52;100.00
9905;BME280;4991;43.566;27.820;2023-08-20T06:03:31;98943.25;;;23.79;100.00
9905;BME280;4991;43.566;27.820;2023-08-20T06:05:57;98947.31;;;23.92;100.00
9905;BME280;4991;43.566;27.820;2023-08-20T06:08:23;98945.44;;;24.07;100.00
9905;BME280;4991;43.566;27.820;2023-08-20T06:10:50;98948.25;;;24.14;100.00
9905;BME280;4991;43.566;27.820;2023-08-20T06:13:16;98939.97;;;24.32;100.00
9905;BME280;4991;43.566;27.820;2023-08-20T06:15:41;98943.97;;;24.38;100.00
9905;BME280;4991;43.566;27.820;2023-08-20T06:18:07;98945.22;;;24.47;100.00
9905;BME280;4991;43.566;27.820;2023-08-20T06:20:32;98941.69;;;24.64;100.00
9905;BME280;4991;43.566;27.820;2023-08-20T06:22:58;98941.72;;;24.68;100.00
9905;BME280;4991;43.566;27.820;2023-08-20T06:25:24;98938.56;;;24.76;100.00
9905;BME280;4991;43.566;27.820;2023-08-20T06:27:49;98936.19;;;24.82;100.00
9905;BME280;4991;43.566;27.820;2023-08-20T06:30:15;98921.88;;;24.87;100.00
9905;BME280;4991;43.566;27.820;2023-08-20T06:32:43;98939.44;;;25.08;100.00
9905;BME280;4991;43.566;27.820;2023-08-20T06:35:09;98937.88;;;25.28;100.00
9905;BME280;4991;43.566;27.820;2023-08-20T06:37:35;98932.31;;;25.53;100.00
9905;BME280;4991;43.566;27.820;2023-08-20T06:40:01;98930.28;;;25.71;100.00
9905;BME280;4991;43.566;27.820;2023-08-20T06:42:27;98931.47;;;25.88;100.00
9905;BME280;4991;43.566;27.820;2023-08-20T06:44:52;98940.63;;;26.02;100.00
9905;BME280;4991;43.566;27.820;2023-08-20T06:47:18;98941.78;;;26.19;100.00
9905;BME280;4991;43.566;27.820;2023-08-20T06:49:43;98936.16;;;26.29;100.00
9905;BME280;4991;43.566;27.820;2023-08-20T06:52:09;98934.13;;;26.40;100.00
9905;BME280;4991;43.566;27.820;2023-08-20T06:54:35;98930.09;;;26.48;100.00
9905;BME280;4991;43.566;27.820;2023-08-20T06:57:00;98932.44;;;26.53;100.00
9905;BME280;4991;43.566;27.820;2023-08-20T06:59:26;98925.63;;;26.61;100.00
9905;BME280;4991;43.566;27.820;2023-08-20T07:01:52;98928.81;;;26.71;100.00
9905;BME280;4991;43.566;27.820;2023-08-20T07:04:18;98937.91;;;26.82;100.00
9905;BME280;4991;43.566;27.820;2023-08-20T07:06:44;98932.28;;;26.89;100.00
9905;BME280;4991;43.566;27.820;2023-08-20T07:09:09;98924.31;;;26.87;100.00
9905;BME280;4991;43.566;27.820;2023-08-20T07:11:35;98930.66;;;26.95;100.00
9905;BME280;4991;43.566;27.820;2023-08-20T07:14:01;98929.44;;;27.03;100.00
9905;BME280;4991;43.566;27.820;2023-08-20T07:16:26;98926.94;;;27.12;100.00
9905;BME280;4991;43.566;27.820;2023-08-20T07:18:52;98924.84;;;27.26;100.00
9905;BME280;4991;43.566;27.820;2023-08-20T07:21:18;98920.00;;;27.37;100.00
9905;BME280;4991;43.566;27.820;2023-08-20T07:23:44;98919.13;;;27.47;100.00
9905;BME280;4991;43.566;27.820;2023-08-20T07:26:10;98924.19;;;27.59;100.00
9905;BME280;4991;43.566;27.820;2023-08-20T07:28:37;98923.97;;;27.84;100.00
9905;BME280;4991;43.566;27.820;2023-08-20T07:31:22;98921.03;;;27.98;100.00
9905;BME280;4991;43.566;27.820;2023-08-20T07:33:49;98915.31;;;28.09;100.00
9905;BME280;4991;43.566;27.820;2023-08-20T07:36:16;98915.59;;;28.18;100.00
9905;BME280;4991;43.566;27.820;2023-08-20T07:38:42;98916.63;;;28.31;100.00
9905;BME280;4991;43.566;27.820;2023-08-20T07:41:11;98913.25;;;28.46;100.00
9905;BME280;4991;43.566;27.820;2023-08-20T07:43:38;98902.38;;;28.55;100.00
9905;BME280;4991;43.566;27.820;2023-08-20T07:46:05;98904.16;;;28.69;100.00
9905;BME280;4991;43.566;27.820;2023-08-20T07:48:31;98903.25;;;28.75;100.00
9905;BME280;4991;43.566;27.820;2023-08-20T07:50:57;98909.19;;;28.81;100.00
9905;BME280;4991;43.566;27.820;2023-08-20T07:53:23;98904.53;;;28.97;100.00
9905;BME280;4991;43.566;27.820;2023-08-20T07:55:48;98901.66;;;29.04;100.00
9905;BME280;4991;43.566;27.820;2023-08-20T07:58:14;98897.16;;;29.10;100.00
9905;BME280;4991;43.566;27.820;2023-08-20T08:00:40;98902.66;;;29.18;100.00
9905;BME280;4991;43.566;27.820;2023-08-20T08:03:06;98898.16;;;29.24;100.00
9905;BME280;4991;43.566;27.820;2023-08-20T08:05:32;98884.25;;;29.17;100.00
9905;BME280;4991;43.566;27.820;2023-08-20T08:07:57;98888.09;;;29.26;100.00
9905;BME280;4991;43.566;27.820;2023-08-20T08:10:23;98896.22;;;29.44;100.00
9905;BME280;4991;43.566;27.820;2023-08-20T08:12:49;98890.00;;;29.56;100.00
9905;BME280;4991;43.566;27.820;2023-08-20T08:15:15;98893.59;;;29.56;100.00
9905;BME280;4991;43.566;27.820;2023-08-20T08:17:40;98889.03;;;29.66;100.00
9905;BME280;4991;43.566;27.820;2023-08-20T08:20:06;98886.38;;;29.78;100.00
9905;BME280;4991;43.566;27.820;2023-08-20T08:22:33;98893.09;;;29.84;100.00
9905;BME280;4991;43.566;27.820;2023-08-20T08:24:58;98881.44;;;30.05;100.00
9905;BME280;4991;43.566;27.820;2023-08-20T08:27:24;98890.19;;;30.11;100.00
9905;BME280;4991;43.566;27.820;2023-08-20T08:29:50;98888.38;;;30.20;100.00
9905;BME280;4991;43.566;27.820;2023-08-20T08:32:16;98885.88;;;30.26;100.00
9905;BME280;4991;43.566;27.820;2023-08-20T08:34:42;98889.75;;;30.32;100.00
9905;BME280;4991;43.566;27.820;2023-08-20T08:37:08;98886.38;;;30.41;100.00
9905;BME280;4991;43.566;27.820;2023-08-20T08:39:33;98887.00;;;30.48;100.00
9905;BME280;4991;43.566;27.820;2023-08-20T08:42:01;98883.53;;;30.60;100.00
9905;BME280;4991;43.566;27.820;2023-08-20T08:44:34;98879.94;;;30.79;100.00
9905;BME280;4991;43.566;27.820;2023-08-20T08:47:02;98887.31;;;30.89;100.00
9905;BME280;4991;43.566;27.820;2023-08-20T08:49:28;98894.00;;;30.95;100.00
9905;BME280;4991;43.566;27.820;2023-08-20T08:51:59;98884.09;;;31.07;100.00
9905;BME280;4991;43.566;27.820;2023-08-20T08:54:25;98888.91;;;31.06;100.00
9905;BME280;4991;43.566;27.820;2023-08-20T08:56:51;98885.84;;;31.01;100.00
9905;BME280;4991;43.566;27.820;2023-08-20T08:59:18;98890.50;;;31.07;100.00
9905;BME280;4991;43.566;27.820;2023-08-20T09:01:43;98898.44;;;31.12;100.00
9905;BME280;4991;43.566;27.820;2023-08-20T09:04:09;98883.13;;;31.13;100.00
9905;BME280;4991;43.566;27.820;2023-08-20T09:06:49;98896.91;;;31.08;100.00
9905;BME280;4991;43.566;27.820;2023-08-20T09:09:17;98886.91;;;31.23;100.00
9905;BME280;4991;43.566;27.820;2023-08-20T09:11:44;98868.91;;;31.36;100.00
9905;BME280;4991;43.566;27.820;2023-08-20T09:14:30;98874.34;;;31.43;100.00
9905;BME280;4991;43.566;27.820;2023-08-20T09:16:58;98872.41;;;31.57;100.00
9905;BME280;4991;43.566;27.820;2023-08-20T09:19:28;98870.53;;;31.66;100.00
9905;BME280;4991;43.566;27.820;2023-08-20T09:21:54;98863.50;;;31.58;100.00
9905;BME280;4991;43.566;27.820;2023-08-20T09:27:03;98872.19;;;31.80;100.00
9905;BME280;4991;43.566;27.820;2023-08-20T09:29:47;98874.44;;;31.85;100.00
9905;BME280;4991;43.566;27.820;2023-08-20T09:32:24;98866.28;;;31.90;100.00
9905;BME280;4991;43.566;27.820;2023-08-20T09:34:51;98875.59;;;31.87;100.00
9905;BME280;4991;43.566;27.820;2023-08-20T09:37:23;98874.97;;;31.96;100.00
9905;BME280;4991;43.566;27.820;2023-08-20T09:39:50;98874.72;;;32.47;100.00
9905;BME280;4991;43.566;27.820;2023-08-20T09:42:16;98872.38;;;33.80;91.34
9905;BME280;4991;43.566;27.820;2023-08-20T09:44:44;98877.56;;;34.59;77.51
9905;BME280;4991;43.566;27.820;2023-08-20T09:47:11;98872.66;;;35.70;70.54
9905;BME280;4991;43.566;27.820;2023-08-20T09:49:47;98879.47;;;36.36;67.70
9905;BME280;4991;43.566;27.820;2023-08-20T09:52:35;98873.44;;;36.52;67.12
9905;BME280;4991;43.566;27.820;2023-08-20T09:55:11;98876.97;;;37.53;64.17
9905;BME280;4991;43.566;27.820;2023-08-20T09:57:39;98875.81;;;38.07;61.79
9905;BME280;4991;43.566;27.820;2023-08-20T10:00:07;98884.91;;;37.26;61.35
9905;BME280;4991;43.566;27.820;2023-08-20T10:02:37;98869.81;;;38.43;58.23
9905;BME280;4991;43.566;27.820;2023-08-20T10:05:06;98873.53;;;38.64;57.87
9905;BME280;4991;43.566;27.820;2023-08-20T10:07:34;98877.13;;;39.23;55.99
9905;BME280;4991;43.566;27.820;2023-08-20T10:10:05;98874.22;;;38.59;52.08
9905;BME280;4991;43.566;27.820;2023-08-20T10:12:32;98874.72;;;38.87;51.18
9905;BME280;4991;43.566;27.820;2023-08-20T10:14:59;98879.38;;;39.19;52.89
9905;BME280;4991;43.566;27.820;2023-08-20T10:17:25;98875.19;;;40.29;50.37
9905;BME280;4991;43.566;27.820;2023-08-20T10:19:52;98871.91;;;40.93;48.18
9905;BME280;4991;43.566;27.820;2023-08-20T10:22:19;98874.13;;;40.07;49.77
9905;BME280;4991;43.566;27.820;2023-08-20T10:24:49;98873.88;;;40.76;48.30
9905;BME280;4991;43.566;27.820;2023-08-20T10:27:28;98881.75;;;40.61;47.74
9905;BME280;4991;43.566;27.820;2023-08-20T10:29:54;98873.16;;;40.10;46.47
9905;BME280;4991;43.566;27.820;2023-08-20T10:32:21;98862.97;;;40.80;45.19
9905;BME280;4991;43.566;27.820;2023-08-20T10:35:06;98872.63;;;41.14;45.42
9905;BME280;4991;43.566;27.820;2023-08-20T10:37:33;98881.88;;;41.40;44.21
9905;BME280;4991;43.566;27.820;2023-08-20T10:39:59;98868.72;;;41.53;42.24
9905;BME280;4991;43.566;27.820;2023-08-20T10:42:26;98865.41;;;41.24;42.45
9905;BME280;4991;43.566;27.820;2023-08-20T10:47:24;98864.13;;;40.62;42.65
9905;BME280;4991;43.566;27.820;2023-08-20T10:49:53;98873.72;;;41.22;41.35
9905;BME280;4991;43.566;27.820;2023-08-20T10:52:22;98868.13;;;41.07;41.57
9905;BME280;4991;43.566;27.820;2023-08-20T10:54:50;98859.50;;;41.86;41.39
9905;BME280;4991;43.566;27.820;2023-08-20T10:57:17;98858.47;;;42.81;40.05
9905;BME280;4991;43.566;27.820;2023-08-20T10:59:56;98845.19;;;42.94;39.87
9905;BME280;4991;43.566;27.820;2023-08-20T11:02:23;98860.44;;;41.55;40.34
9905;BME280;4991;43.566;27.820;2023-08-20T11:04:52;98856.06;;;41.71;40.25
9905;BME280;4991;43.566;27.820;2023-08-20T11:07:19;98860.50;;;42.36;38.96
9905;BME280;4991;43.566;27.820;2023-08-20T11:09:45;98851.38;;;42.38;38.89
9905;BME280;4991;43.566;27.820;2023-08-20T11:12:15;98845.16;;;42.50;38.81
9905;BME280;4991;43.566;27.820;2023-08-20T11:14:41;98857.31;;;42.12;39.64
9905;BME280;4991;43.566;27.820;2023-08-20T11:17:07;98849.88;;;42.97;39.37
9905;BME280;4991;43.566;27.820;2023-08-20T11:19:33;98840.25;;;42.78;38.60
9905;BME280;4991;43.566;27.820;2023-08-20T11:21:59;98840.75;;;43.21;37.57
9905;BME280;4991;43.566;27.820;2023-08-20T11:24:28;98837.94;;;44.35;36.63
9905;BME280;4991;43.566;27.820;2023-08-20T11:26:54;98840.22;;;44.02;36.20
9905;BME280;4991;43.566;27.820;2023-08-20T11:29:20;98838.50;;;44.28;36.08
9905;BME280;4991;43.566;27.820;2023-08-20T11:31:47;98832.56;;;44.56;35.32
9905;BME280;4991;43.566;27.820;2023-08-20T11:34:13;98830.25;;;45.38;33.86
9905;BME280;4991;43.566;27.820;2023-08-20T11:36:39;98827.06;;;44.58;33.98
9905;BME280;4991;43.566;27.820;2023-08-20T11:39:06;98821.97;;;45.05;33.70
9905;BME280;4991;43.566;27.820;2023-08-20T11:41:35;98822.94;;;45.13;33.88
9905;BME280;4991;43.566;27.820;2023-08-20T11:44:01;98819.06;;;44.05;33.77
9905;BME280;4991;43.566;27.820;2023-08-20T11:46:28;98812.78;;;44.06;33.69
9905;BME280;4991;43.566;27.820;2023-08-20T11:49:06;98821.00;;;45.50;33.06
9905;BME280;4991;43.566;27.820;2023-08-20T11:51:50;98813.13;;;45.94;32.18
9905;BME280;4991;43.566;27.820;2023-08-20T11:54:17;98805.81;;;45.26;32.08
9905;BME280;4991;43.566;27.820;2023-08-20T11:56:47;98809.63;;;44.10;32.32
9905;BME280;4991;43.566;27.820;2023-08-20T11:59:14;98813.53;;;44.12;32.16
9905;BME280;4991;43.566;27.820;2023-08-20T12:01:41;98808.81;;;43.63;32.48
9905;BME280;4991;43.566;27.820;2023-08-20T12:04:08;98809.56;;;43.69;32.04
9905;BME280;4991;43.566;27.820;2023-08-20T12:06:35;98801.66;;;42.74;33.08
9905;BME280;4991;43.566;27.820;2023-08-20T12:09:17;98805.06;;;42.45;33.55
9905;BME280;4991;43.566;27.820;2023-08-20T12:11:49;98808.19;;;42.47;33.46
9905;BME280;4991;43.566;27.820;2023-08-20T12:14:17;98801.84;;;42.04;33.47
9905;BME280;4991;43.566;27.820;2023-08-20T12:16:43;98798.03;;;42.73;32.87
9905;BME280;4991;43.566;27.820;2023-08-20T12:19:12;98795.41;;;43.88;32.23
9905;BME280;4991;43.566;27.820;2023-08-20T12:21:40;98793.81;;;44.33;31.14
9905;BME280;4991;43.566;27.820;2023-08-20T12:24:06;98800.50;;;44.82;30.60
9905;BME280;4991;43.566;27.820;2023-08-20T12:26:34;98794.31;;;45.50;30.12
9905;BME280;4991;43.566;27.820;2023-08-20T12:29:01;98797.25;;;45.20;29.76
9905;BME280;4991;43.566;27.820;2023-08-20T12:31:30;98792.88;;;45.62;28.14
9905;BME280;4991;43.566;27.820;2023-08-20T12:33:58;98797.47;;;45.22;28.78
9905;BME280;4991;43.566;27.820;2023-08-20T12:36:26;98783.97;;;44.58;29.33
9905;BME280;4991;43.566;27.820;2023-08-20T12:38:53;98792.53;;;43.88;29.87
9905;BME280;4991;43.566;27.820;2023-08-20T12:41:21;98774.66;;;44.46;29.72
9905;BME280;4991;43.566;27.820;2023-08-20T12:43:49;98780.00;;;43.85;29.79
9905;BME280;4991;43.566;27.820;2023-08-20T12:46:17;98778.44;;;44.36;30.25
9905;BME280;4991;43.566;27.820;2023-08-20T12:48:44;98779.22;;;45.87;28.42
9905;BME280;4991;43.566;27.820;2023-08-20T12:51:11;98775.53;;;46.23;28.36
9905;BME280;4991;43.566;27.820;2023-08-20T12:53:41;98774.13;;;46.30;28.21
9905;BME280;4991;43.566;27.820;2023-08-20T12:56:07;98792.94;;;45.94;27.74
9905;BME280;4991;43.566;27.820;2023-08-20T12:58:33;98793.38;;;45.60;27.80
9905;BME280;4991;43.566;27.820;2023-08-20T13:01:00;98783.38;;;45.67;27.51
9905;BME280;4991;43.566;27.820;2023-08-20T13:03:26;98775.44;;;46.29;27.00
9905;BME280;4991;43.566;27.820;2023-08-20T13:05:54;98771.72;;;45.11;28.16
9905;BME280;4991;43.566;27.820;2023-08-20T13:08:23;98775.31;;;45.84;27.49
9905;BME280;4991;43.566;27.820;2023-08-20T13:10:53;98772.13;;;45.21;28.08
9905;BME280;4991;43.566;27.820;2023-08-20T13:13:21;98765.81;;;46.58;27.50